sensor_id;sensor_type;location;lat;lon;timestamp;P1;durP1;ratioP1;P2;durP2;ratioP2
13834;SDS011;6988;52.614;13.500;2023-03-24T00:03:12;5.50;;;4.10;;
13834;SDS011;6988;52.614;13.500;2023-03-24T00:08:06;6.47;;;3.87;;
13834;SDS011;6988;52.614;13.500;2023-03-24T00:12:57;6.87;;;4.30;;
13834;SDS011;6988;52.614;13.500;2023-03-24T00:17:50;6.17;;;4.10;;
13834;SDS011;6988;52.614;13.500;2023-03-24T00:22:45;6.27;;;4.17;;
13834;SDS011;6988;52.614;13.500;2023-03-24T00:27:39;7.53;;;3.97;;
13834;SDS011;6988;52.614;13.500;2023-03-24T00:32:34;8.47;;;4.30;;
13834;SDS011;6988;52.614;13.500;2023-03-24T00:37:27;6.43;;;3.87;;
13834;SDS011;6988;52.614;13.500;2023-03-24T00:42:21;4.97;;;3.50;;
13834;SDS011;6988;52.614;13.500;2023-03-24T00:47:13;4.60;;;3.73;;
13834;SDS011;6988;52.614;13.500;2023-03-24T00:52:07;4.63;;;3.27;;
13834;SDS011;6988;52.614;13.500;2023-03-24T00:57:00;4.60;;;3.17;;
13834;SDS011;6988;52.614;13.500;2023-03-24T01:01:54;3.90;;;3.20;;
13834;SDS011;6988;52.614;13.500;2023-03-24T01:06:47;5.97;;;3.23;;
13834;SDS011;6988;52.614;13.500;2023-03-24T01:11:41;4.00;;;3.20;;
13834;SDS011;6988;52.614;13.500;2023-03-24T01:16:33;5.00;;;2.97;;
13834;SDS011;6988;52.614;13.500;2023-03-24T01:21:26;4.63;;;3.10;;
13834;SDS011;6988;52.614;13.500;2023-03-24T01:26:21;3.47;;;2.70;;
13834;SDS011;6988;52.614;13.500;2023-03-24T01:31:13;5.03;;;2.87;;
13834;SDS011;6988;52.614;13.500;2023-03-24T01:36:05;5.63;;;3.00;;
13834;SDS011;6988;52.614;13.500;2023-03-24T01:40:59;3.90;;;2.87;;
13834;SDS011;6988;52.614;13.500;2023-03-24T01:45:57;3.50;;;2.73;;
13834;SDS011;6988;52.614;13.500;2023-03-24T01:51:05;3.63;;;2.70;;
13834;SDS011;6988;52.614;13.500;2023-03-24T01:56:02;3.63;;;2.70;;
13834;SDS011;6988;52.614;13.500;2023-03-24T02:01:02;4.63;;;2.73;;
13834;SDS011;6988;52.614;13.500;2023-03-24T02:06:19;2.90;;;2.60;;
13834;SDS011;6988;52.614;13.500;2023-03-24T02:11:16;3.77;;;3.17;;
13834;SDS011;6988;52.614;13.500;2023-03-24T02:16:26;3.20;;;2.80;;
13834;SDS011;6988;52.614;13.500;2023-03-24T02:21:59;4.90;;;2.97;;
13834;SDS011;6988;52.614;13.500;2023-03-24T02:27:46;3.73;;;3.10;;
13834;SDS011;6988;52.614;13.500;2023-03-24T02:33:15;5.17;;;2.80;;
13834;SDS011;6988;52.614;13.500;2023-03-24T02:38:52;3.60;;;2.67;;
13834;SDS011;6988;52.614;13.500;2023-03-24T02:44:16;3.27;;;2.83;;
13834;SDS011;6988;52.614;13.500;2023-03-24T02:49:18;3.43;;;2.77;;
13834;SDS011;6988;52.614;13.500;2023-03-24T02:54:22;3.80;;;2.90;;
13834;SDS011;6988;52.614;13.500;2023-03-24T02:59:26;6.13;;;3.00;;
13834;SDS011;6988;52.614;13.500;2023-03-24T03:04:27;2.90;;;2.60;;
13834;SDS011;6988;52.614;13.500;2023-03-24T03:09:27;3.80;;;2.80;;
13834;SDS011;6988;52.614;13.500;2023-03-24T03:14:21;2.83;;;2.50;;
13834;SDS011;6988;52.614;13.500;2023-03-24T03:19:21;3.53;;;2.90;;
13834;SDS011;6988;52.614;13.500;2023-03-24T03:24:23;3.97;;;3.03;;
13834;SDS011;6988;52.614;13.500;2023-03-24T03:29:22;3.27;;;2.50;;
13834;SDS011;6988;52.614;13.500;2023-03-24T03:34:23;2.70;;;2.50;;
13834;SDS011;6988;52.614;13.500;2023-03-24T03:39:26;5.40;;;2.77;;
13834;SDS011;6988;52.614;13.500;2023-03-24T03:44:27;3.07;;;2.70;;
13834;SDS011;6988;52.614;13.500;2023-03-24T03:49:19;3.67;;;2.77;;
13834;SDS011;6988;52.614;13.500;2023-03-24T03:54:15;4.13;;;2.73;;
13834;SDS011;6988;52.614;13.500;2023-03-24T03:59:21;3.73;;;2.73;;
13834;SDS011;6988;52.614;13.500;2023-03-24T04:04:21;4.27;;;2.87;;
13834;SDS011;6988;52.614;13.500;2023-03-24T04:09:50;5.80;;;2.97;;
13834;SDS011;6988;52.614;13.500;2023-03-24T04:15:05;5.70;;;3.37;;
13834;SDS011;6988;52.614;13.500;2023-03-24T04:20:51;4.40;;;3.00;;
13834;SDS011;6988;52.614;13.500;2023-03-24T04:26:03;4.77;;;3.20;;
13834;SDS011;6988;52.614;13.500;2023-03-24T04:31:13;3.93;;;3.27;;
13834;SDS011;6988;52.614;13.500;2023-03-24T04:36:19;4.30;;;2.80;;
13834;SDS011;6988;52.614;13.500;2023-03-24T04:41:47;4.10;;;3.20;;
13834;SDS011;6988;52.614;13.500;2023-03-24T04:46:48;4.10;;;3.30;;
13834;SDS011;6988;52.614;13.500;2023-03-24T04:51:44;5.73;;;3.63;;
13834;SDS011;6988;52.614;13.500;2023-03-24T04:56:47;5.20;;;4.20;;
13834;SDS011;6988;52.614;13.500;2023-03-24T05:01:46;4.10;;;3.70;;
13834;SDS011;6988;52.614;13.500;2023-03-24T05:07:06;6.07;;;3.70;;
13834;SDS011;6988;52.614;13.500;2023-03-24T05:11:59;5.90;;;4.47;;
13834;SDS011;6988;52.614;13.500;2023-03-24T05:16:54;9.20;;;4.40;;
13834;SDS011;6988;52.614;13.500;2023-03-24T05:21:47;5.03;;;4.10;;
13834;SDS011;6988;52.614;13.500;2023-03-24T05:26:41;5.37;;;4.47;;
13834;SDS011;6988;52.614;13.500;2023-03-24T05:31:40;6.40;;;4.20;;
13834;SDS011;6988;52.614;13.500;2023-03-24T05:36:38;6.43;;;4.07;;
13834;SDS011;6988;52.614;13.500;2023-03-24T05:41:31;4.87;;;3.63;;
13834;SDS011;6988;52.614;13.500;2023-03-24T05:46:24;7.97;;;4.23;;
13834;SDS011;6988;52.614;13.500;2023-03-24T05:51:16;6.10;;;4.17;;
13834;SDS011;6988;52.614;13.500;2023-03-24T05:56:09;4.90;;;4.40;;
13834;SDS011;6988;52.614;13.500;2023-03-24T06:01:20;6.00;;;4.37;;
13834;SDS011;6988;52.614;13.500;2023-03-24T06:06:20;5.37;;;3.80;;
13834;SDS011;6988;52.614;13.500;2023-03-24T06:11:12;5.93;;;4.10;;
13834;SDS011;6988;52.614;13.500;2023-03-24T06:16:14;8.83;;;4.37;;
13834;SDS011;6988;52.614;13.500;2023-03-24T06:21:21;5.67;;;4.13;;
13834;SDS011;6988;52.614;13.500;2023-03-24T06:26:20;6.10;;;4.40;;
13834;SDS011;6988;52.614;13.500;2023-03-24T06:31:18;5.97;;;4.00;;
13834;SDS011;6988;52.614;13.500;2023-03-24T06:36:13;4.47;;;3.87;;
13834;SDS011;6988;52.614;13.500;2023-03-24T06:41:07;4.97;;;3.90;;
13834;SDS011;6988;52.614;13.500;2023-03-24T06:46:02;5.70;;;3.53;;
13834;SDS011;6988;52.614;13.500;2023-03-24T06:50:55;5.77;;;3.73;;
13834;SDS011;6988;52.614;13.500;2023-03-24T06:55:47;4.47;;;3.80;;
13834;SDS011;6988;52.614;13.500;2023-03-24T07:00:43;5.30;;;4.10;;
13834;SDS011;6988;52.614;13.500;2023-03-24T07:05:51;4.10;;;3.63;;
13834;SDS011;6988;52.614;13.500;2023-03-24T07:10:43;5.40;;;3.63;;
13834;SDS011;6988;52.614;13.500;2023-03-24T07:15:36;4.77;;;3.67;;
13834;SDS011;6988;52.614;13.500;2023-03-24T07:20:30;5.53;;;3.60;;
13834;SDS011;6988;52.614;13.500;2023-03-24T07:25:31;4.97;;;3.83;;
13834;SDS011;6988;52.614;13.500;2023-03-24T07:30:36;5.10;;;3.83;;
13834;SDS011;6988;52.614;13.500;2023-03-24T07:35:29;5.27;;;4.00;;
13834;SDS011;6988;52.614;13.500;2023-03-24T07:40:21;5.40;;;3.23;;
13834;SDS011;6988;52.614;13.500;2023-03-24T07:45:13;5.07;;;3.40;;
13834;SDS011;6988;52.614;13.500;2023-03-24T07:50:08;4.53;;;3.30;;
13834;SDS011;6988;52.614;13.500;2023-03-24T07:55:02;5.70;;;3.60;;
13834;SDS011;6988;52.614;13.500;2023-03-24T08:00:13;4.13;;;3.50;;
13834;SDS011;6988;52.614;13.500;2023-03-24T08:05:15;3.80;;;3.40;;
13834;SDS011;6988;52.614;13.500;2023-03-24T08:10:17;5.07;;;3.30;;
13834;SDS011;6988;52.614;13.500;2023-03-24T08:15:11;4.33;;;3.37;;
13834;SDS011;6988;52.614;13.500;2023-03-24T08:20:05;4.47;;;3.50;;
13834;SDS011;6988;52.614;13.500;2023-03-24T08:25:03;4.97;;;3.43;;
13834;SDS011;6988;52.614;13.500;2023-03-24T08:29:58;5.43;;;3.57;;
13834;SDS011;6988;52.614;13.500;2023-03-24T08:34:50;6.00;;;3.50;;
13834;SDS011;6988;52.614;13.500;2023-03-24T08:39:43;5.87;;;3.70;;
13834;SDS011;6988;52.614;13.500;2023-03-24T08:44:35;3.90;;;3.50;;
13834;SDS011;6988;52.614;13.500;2023-03-24T08:49:30;4.40;;;3.83;;
13834;SDS011;6988;52.614;13.500;2023-03-24T08:54:22;5.57;;;3.70;;
13834;SDS011;6988;52.614;13.500;2023-03-24T08:59:15;4.33;;;3.50;;
13834;SDS011;6988;52.614;13.500;2023-03-24T09:04:07;3.73;;;3.33;;
13834;SDS011;6988;52.614;13.500;2023-03-24T09:09:02;5.83;;;3.57;;
13834;SDS011;6988;52.614;13.500;2023-03-24T09:13:54;4.87;;;3.30;;
13834;SDS011;6988;52.614;13.500;2023-03-24T09:18:47;6.03;;;3.47;;
13834;SDS011;6988;52.614;13.500;2023-03-24T09:23:39;5.73;;;3.80;;
13834;SDS011;6988;52.614;13.500;2023-03-24T09:28:32;4.53;;;3.63;;
13834;SDS011;6988;52.614;13.500;2023-03-24T09:33:24;6.50;;;3.47;;
13834;SDS011;6988;52.614;13.500;2023-03-24T09:38:18;5.40;;;3.63;;
13834;SDS011;6988;52.614;13.500;2023-03-24T09:43:12;4.83;;;3.87;;
13834;SDS011;6988;52.614;13.500;2023-03-24T09:48:16;4.63;;;3.57;;
13834;SDS011;6988;52.614;13.500;2023-03-24T09:53:19;4.50;;;3.53;;
13834;SDS011;6988;52.614;13.500;2023-03-24T09:58:21;4.67;;;3.67;;
13834;SDS011;6988;52.614;13.500;2023-03-24T10:03:21;4.57;;;3.43;;
13834;SDS011;6988;52.614;13.500;2023-03-24T10:08:16;4.17;;;3.10;;
13834;SDS011;6988;52.614;13.500;2023-03-24T10:13:18;3.47;;;2.90;;
13834;SDS011;6988;52.614;13.500;2023-03-24T10:18:25;4.50;;;2.83;;
13834;SDS011;6988;52.614;13.500;2023-03-24T10:23:26;3.27;;;2.90;;
13834;SDS011;6988;52.614;13.500;2023-03-24T10:28:27;3.43;;;2.70;;
13834;SDS011;6988;52.614;13.500;2023-03-24T10:33:30;2.67;;;2.20;;
13834;SDS011;6988;52.614;13.500;2023-03-24T10:38:22;4.60;;;2.23;;
13834;SDS011;6988;52.614;13.500;2023-03-24T10:43:14;2.50;;;2.13;;
13834;SDS011;6988;52.614;13.500;2023-03-24T10:48:08;3.20;;;2.30;;
13834;SDS011;6988;52.614;13.500;2023-03-24T10:53:08;3.20;;;1.87;;
13834;SDS011;6988;52.614;13.500;2023-03-24T10:58:09;3.73;;;2.30;;
13834;SDS011;6988;52.614;13.500;2023-03-24T11:03:11;3.23;;;2.40;;
13834;SDS011;6988;52.614;13.500;2023-03-24T11:08:13;3.67;;;2.50;;
13834;SDS011;6988;52.614;13.500;2023-03-24T11:13:18;3.60;;;2.60;;
13834;SDS011;6988;52.614;13.500;2023-03-24T11:18:18;2.83;;;2.37;;
13834;SDS011;6988;52.614;13.500;2023-03-24T11:23:18;3.90;;;2.37;;
13834;SDS011;6988;52.614;13.500;2023-03-24T11:28:17;3.87;;;2.30;;
13834;SDS011;6988;52.614;13.500;2023-03-24T11:33:17;2.87;;;2.33;;
13834;SDS011;6988;52.614;13.500;2023-03-24T11:38:14;3.40;;;2.30;;
13834;SDS011;6988;52.614;13.500;2023-03-24T11:43:13;3.07;;;2.73;;
13834;SDS011;6988;52.614;13.500;2023-03-24T11:48:13;2.63;;;2.30;;
13834;SDS011;6988;52.614;13.500;2023-03-24T11:53:16;5.27;;;2.10;;
13834;SDS011;6988;52.614;13.500;2023-03-24T11:58:16;4.20;;;1.80;;
13834;SDS011;6988;52.614;13.500;2023-03-24T12:03:24;3.30;;;1.90;;
13834;SDS011;6988;52.614;13.500;2023-03-24T12:08:47;2.37;;;1.70;;
13834;SDS011;6988;52.614;13.500;2023-03-24T12:13:57;2.53;;;2.10;;
13834;SDS011;6988;52.614;13.500;2023-03-24T12:18:57;2.57;;;1.93;;
13834;SDS011;6988;52.614;13.500;2023-03-24T12:24:14;3.20;;;1.90;;
13834;SDS011;6988;52.614;13.500;2023-03-24T12:29:25;2.20;;;2.00;;
13834;SDS011;6988;52.614;13.500;2023-03-24T12:34:47;2.00;;;1.53;;
13834;SDS011;6988;52.614;13.500;2023-03-24T12:40:18;2.03;;;1.60;;
13834;SDS011;6988;52.614;13.500;2023-03-24T12:45:36;2.67;;;1.70;;
13834;SDS011;6988;52.614;13.500;2023-03-24T12:50:41;3.27;;;1.30;;
13834;SDS011;6988;52.614;13.500;2023-03-24T12:55:49;1.97;;;1.40;;
13834;SDS011;6988;52.614;13.500;2023-03-24T13:00:52;2.30;;;1.10;;
13834;SDS011;6988;52.614;13.500;2023-03-24T13:05:56;1.80;;;1.10;;
13834;SDS011;6988;52.614;13.500;2023-03-24T13:11:03;1.93;;;1.00;;
13834;SDS011;6988;52.614;13.500;2023-03-24T13:16:01;3.50;;;1.03;;
13834;SDS011;6988;52.614;13.500;2023-03-24T13:20:59;1.97;;;1.20;;
13834;SDS011;6988;52.614;13.500;2023-03-24T13:25:58;2.60;;;0.93;;
13834;SDS011;6988;52.614;13.500;2023-03-24T13:31:02;1.33;;;0.80;;
13834;SDS011;6988;52.614;13.500;2023-03-24T13:36:02;1.13;;;0.70;;
13834;SDS011;6988;52.614;13.500;2023-03-24T13:41:16;1.97;;;0.90;;
13834;SDS011;6988;52.614;13.500;2023-03-24T13:46:14;2.00;;;0.90;;
13834;SDS011;6988;52.614;13.500;2023-03-24T13:51:07;2.30;;;1.20;;
13834;SDS011;6988;52.614;13.500;2023-03-24T13:56:08;1.40;;;1.13;;
13834;SDS011;6988;52.614;13.500;2023-03-24T14:01:17;1.33;;;0.70;;
13834;SDS011;6988;52.614;13.500;2023-03-24T14:06:42;2.47;;;1.00;;
13834;SDS011;6988;52.614;13.500;2023-03-24T14:11:40;2.40;;;1.00;;
13834;SDS011;6988;52.614;13.500;2023-03-24T14:16:43;2.73;;;0.97;;
13834;SDS011;6988;52.614;13.500;2023-03-24T14:21:56;3.50;;;0.90;;
13834;SDS011;6988;52.614;13.500;2023-03-24T14:26:59;5.17;;;1.10;;
13834;SDS011;6988;52.614;13.500;2023-03-24T14:31:53;2.07;;;0.90;;
13834;SDS011;6988;52.614;13.500;2023-03-24T14:36:56;3.80;;;1.00;;
13834;SDS011;6988;52.614;13.500;2023-03-24T14:41:52;3.77;;;0.90;;
13834;SDS011;6988;52.614;13.500;2023-03-24T14:46:45;2.00;;;0.83;;
13834;SDS011;6988;52.614;13.500;2023-03-24T14:51:41;3.17;;;0.87;;
13834;SDS011;6988;52.614;13.500;2023-03-24T14:56:40;2.50;;;1.00;;
13834;SDS011;6988;52.614;13.500;2023-03-24T15:01:37;2.33;;;1.10;;
13834;SDS011;6988;52.614;13.500;2023-03-24T15:06:47;2.93;;;1.17;;
13834;SDS011;6988;52.614;13.500;2023-03-24T15:11:39;2.97;;;1.10;;
13834;SDS011;6988;52.614;13.500;2023-03-24T15:16:33;3.40;;;1.00;;
13834;SDS011;6988;52.614;13.500;2023-03-24T15:21:29;2.67;;;0.93;;
13834;SDS011;6988;52.614;13.500;2023-03-24T15:26:27;3.33;;;1.00;;
13834;SDS011;6988;52.614;13.500;2023-03-24T15:31:22;4.83;;;0.97;;
13834;SDS011;6988;52.614;13.500;2023-03-24T15:36:20;3.77;;;1.17;;
13834;SDS011;6988;52.614;13.500;2023-03-24T15:41:14;4.63;;;1.13;;
13834;SDS011;6988;52.614;13.500;2023-03-24T15:46:17;4.03;;;1.23;;
13834;SDS011;6988;52.614;13.500;2023-03-24T15:51:15;1.80;;;1.07;;
13834;SDS011;6988;52.614;13.500;2023-03-24T15:56:13;1.90;;;1.10;;
13834;SDS011;6988;52.614;13.500;2023-03-24T16:01:08;3.00;;;1.00;;
13834;SDS011;6988;52.614;13.500;2023-03-24T16:06:11;4.30;;;1.23;;
13834;SDS011;6988;52.614;13.500;2023-03-24T16:11:05;3.57;;;1.10;;
13834;SDS011;6988;52.614;13.500;2023-03-24T16:16:01;4.10;;;1.00;;
13834;SDS011;6988;52.614;13.500;2023-03-24T16:21:14;4.47;;;1.00;;
13834;SDS011;6988;52.614;13.500;2023-03-24T16:26:08;3.77;;;1.20;;
13834;SDS011;6988;52.614;13.500;2023-03-24T16:31:04;4.40;;;1.20;;
13834;SDS011;6988;52.614;13.500;2023-03-24T16:35:56;2.93;;;1.27;;
13834;SDS011;6988;52.614;13.500;2023-03-24T16:40:50;5.17;;;1.77;;
13834;SDS011;6988;52.614;13.500;2023-03-24T16:45:44;3.90;;;1.50;;
13834;SDS011;6988;52.614;13.500;2023-03-24T16:50:39;3.77;;;1.50;;
13834;SDS011;6988;52.614;13.500;2023-03-24T16:55:34;3.93;;;1.63;;
13834;SDS011;6988;52.614;13.500;2023-03-24T17:00:28;4.80;;;1.50;;
13834;SDS011;6988;52.614;13.500;2023-03-24T17:05:22;4.07;;;1.50;;
13834;SDS011;6988;52.614;13.500;2023-03-24T17:10:17;5.27;;;1.87;;
13834;SDS011;6988;52.614;13.500;2023-03-24T17:15:13;5.67;;;1.83;;
13834;SDS011;6988;52.614;13.500;2023-03-24T17:20:14;6.23;;;1.70;;
13834;SDS011;6988;52.614;13.500;2023-03-24T17:25:07;3.10;;;1.60;;
13834;SDS011;6988;52.614;13.500;2023-03-24T17:29:59;4.50;;;1.60;;
13834;SDS011;6988;52.614;13.500;2023-03-24T17:34:52;5.03;;;1.80;;
13834;SDS011;6988;52.614;13.500;2023-03-24T17:39:45;4.80;;;2.00;;
13834;SDS011;6988;52.614;13.500;2023-03-24T17:44:37;4.33;;;2.20;;
13834;SDS011;6988;52.614;13.500;2023-03-24T17:49:29;5.37;;;2.63;;
13834;SDS011;6988;52.614;13.500;2023-03-24T17:54:22;11.33;;;2.97;;
13834;SDS011;6988;52.614;13.500;2023-03-24T17:59:15;5.40;;;2.77;;
13834;SDS011;6988;52.614;13.500;2023-03-24T18:04:07;7.37;;;2.70;;
13834;SDS011;6988;52.614;13.500;2023-03-24T18:08:59;6.17;;;2.77;;
13834;SDS011;6988;52.614;13.500;2023-03-24T18:13:51;5.50;;;2.77;;
13834;SDS011;6988;52.614;13.500;2023-03-24T18:18:44;6.07;;;3.30;;
13834;SDS011;6988;52.614;13.500;2023-03-24T18:23:36;9.97;;;5.27;;
13834;SDS011;6988;52.614;13.500;2023-03-24T18:28:29;7.93;;;4.47;;
13834;SDS011;6988;52.614;13.500;2023-03-24T18:33:22;13.97;;;5.37;;
13834;SDS011;6988;52.614;13.500;2023-03-24T18:38:15;12.33;;;8.27;;
13834;SDS011;6988;52.614;13.500;2023-03-24T18:43:11;9.57;;;6.70;;
13834;SDS011;6988;52.614;13.500;2023-03-24T18:48:03;10.60;;;6.30;;
13834;SDS011;6988;52.614;13.500;2023-03-24T18:52:56;9.33;;;5.80;;
13834;SDS011;6988;52.614;13.500;2023-03-24T18:57:49;11.23;;;5.83;;
13834;SDS011;6988;52.614;13.500;2023-03-24T19:02:41;9.30;;;6.07;;
13834;SDS011;6988;52.614;13.500;2023-03-24T19:07:33;11.03;;;6.63;;
13834;SDS011;6988;52.614;13.500;2023-03-24T19:12:27;15.43;;;9.93;;
13834;SDS011;6988;52.614;13.500;2023-03-24T19:17:20;16.03;;;9.30;;
13834;SDS011;6988;52.614;13.500;2023-03-24T19:22:12;13.63;;;7.20;;
13834;SDS011;6988;52.614;13.500;2023-03-24T19:27:10;10.53;;;5.77;;
13834;SDS011;6988;52.614;13.500;2023-03-24T19:32:02;11.27;;;5.97;;
13834;SDS011;6988;52.614;13.500;2023-03-24T19:36:55;7.80;;;4.20;;
13834;SDS011;6988;52.614;13.500;2023-03-24T19:41:47;8.43;;;3.33;;
13834;SDS011;6988;52.614;13.500;2023-03-24T19:46:39;8.87;;;3.53;;
13834;SDS011;6988;52.614;13.500;2023-03-24T19:51:31;6.87;;;4.27;;
13834;SDS011;6988;52.614;13.500;2023-03-24T19:56:24;8.53;;;4.07;;
13834;SDS011;6988;52.614;13.500;2023-03-24T20:01:16;8.33;;;4.23;;
13834;SDS011;6988;52.614;13.500;2023-03-24T20:06:10;7.17;;;3.80;;
13834;SDS011;6988;52.614;13.500;2023-03-24T20:11:04;9.43;;;4.70;;
13834;SDS011;6988;52.614;13.500;2023-03-24T20:15:59;8.03;;;4.33;;
13834;SDS011;6988;52.614;13.500;2023-03-24T20:20:52;7.23;;;4.50;;
13834;SDS011;6988;52.614;13.500;2023-03-24T20:25:45;7.63;;;3.53;;
13834;SDS011;6988;52.614;13.500;2023-03-24T20:30:37;7.23;;;3.10;;
13834;SDS011;6988;52.614;13.500;2023-03-24T20:35:33;5.10;;;1.97;;
13834;SDS011;6988;52.614;13.500;2023-03-24T20:40:25;5.67;;;2.60;;
13834;SDS011;6988;52.614;13.500;2023-03-24T20:45:17;5.67;;;2.43;;
13834;SDS011;6988;52.614;13.500;2023-03-24T20:50:09;3.57;;;2.00;;
13834;SDS011;6988;52.614;13.500;2023-03-24T20:55:03;3.73;;;2.20;;
13834;SDS011;6988;52.614;13.500;2023-03-24T20:59:57;7.17;;;2.30;;
13834;SDS011;6988;52.614;13.500;2023-03-24T21:04:49;4.87;;;1.90;;
13834;SDS011;6988;52.614;13.500;2023-03-24T21:09:41;4.00;;;2.23;;
13834;SDS011;6988;52.614;13.500;2023-03-24T21:14:35;5.60;;;2.00;;
13834;SDS011;6988;52.614;13.500;2023-03-24T21:19:27;3.47;;;1.97;;
13834;SDS011;6988;52.614;13.500;2023-03-24T21:24:19;2.90;;;1.80;;
13834;SDS011;6988;52.614;13.500;2023-03-24T21:29:11;4.20;;;2.10;;
13834;SDS011;6988;52.614;13.500;2023-03-24T21:34:05;5.10;;;2.30;;
13834;SDS011;6988;52.614;13.500;2023-03-24T21:38:57;5.27;;;1.90;;
13834;SDS011;6988;52.614;13.500;2023-03-24T21:43:48;3.90;;;2.13;;
13834;SDS011;6988;52.614;13.500;2023-03-24T21:48:43;3.67;;;2.00;;
13834;SDS011;6988;52.614;13.500;2023-03-24T21:53:41;5.83;;;2.30;;
13834;SDS011;6988;52.614;13.500;2023-03-24T21:58:33;4.87;;;1.87;;
13834;SDS011;6988;52.614;13.500;2023-03-24T22:03:26;4.50;;;2.00;;
13834;SDS011;6988;52.614;13.500;2023-03-24T22:08:19;3.57;;;1.80;;
13834;SDS011;6988;52.614;13.500;2023-03-24T22:13:16;3.70;;;2.07;;
13834;SDS011;6988;52.614;13.500;2023-03-24T22:18:08;4.20;;;2.00;;
13834;SDS011;6988;52.614;13.500;2023-03-24T22:23:00;5.47;;;2.37;;
13834;SDS011;6988;52.614;13.500;2023-03-24T22:27:52;6.20;;;2.40;;
13834;SDS011;6988;52.614;13.500;2023-03-24T22:32:46;4.73;;;2.73;;
13834;SDS011;6988;52.614;13.500;2023-03-24T22:37:38;3.13;;;2.23;;
13834;SDS011;6988;52.614;13.500;2023-03-24T22:42:30;6.03;;;2.30;;
13834;SDS011;6988;52.614;13.500;2023-03-24T23:04:50;3.10;;;2.63;;
13834;SDS011;6988;52.614;13.500;2023-03-24T23:09:42;3.53;;;2.50;;
13834;SDS011;6988;52.614;13.500;2023-03-24T23:14:33;6.17;;;2.80;;
13834;SDS011;6988;52.614;13.500;2023-03-24T23:19:27;5.93;;;2.80;;
13834;SDS011;6988;52.614;13.500;2023-03-24T23:24:23;4.93;;;2.60;;
13834;SDS011;6988;52.614;13.500;2023-03-24T23:29:15;4.83;;;2.50;;
13834;SDS011;6988;52.614;13.500;2023-03-24T23:34:07;4.47;;;2.77;;
13834;SDS011;6988;52.614;13.500;2023-03-24T23:39:01;5.23;;;2.33;;
13834;SDS011;6988;52.614;13.500;2023-03-24T23:43:55;4.57;;;2.30;;
13834;SDS011;6988;52.614;13.500;2023-03-24T23:48:47;4.50;;;2.27;;
13834;SDS011;6988;52.614;13.500;2023-03-24T23:53:39;4.27;;;2.50;;
13834;SDS011;6988;52.614;13.500;2023-03-24T23:58:31;5.83;;;2.57;;
